sensor_id;sensor_type;location;lat;lon;timestamp;noise_LAeq;noise_LA_min;noise_LA_max;noise_LA01;noise_LA95
78074;Laerm;67283;50.960;13.856;2023-09-12T00:01:59;30.63;29.34;51.38;;
78074;Laerm;67283;50.960;13.856;2023-09-12T00:04:25;31.60;29.50;56.53;;
78074;Laerm;67283;50.960;13.856;2023-09-12T00:06:50;30.40;29.58;45.81;;
78074;Laerm;67283;50.960;13.856;2023-09-12T00:09:15;30.51;29.39;39.96;;
78074;Laerm;67283;50.960;13.856;2023-09-12T00:11:41;56.07;29.75;72.72;;
78074;Laerm;67283;50.960;13.856;2023-09-12T00:14:08;30.17;29.40;36.48;;
78074;Laerm;67283;50.960;13.856;2023-09-12T00:16:33;30.16;29.47;40.18;;
78074;Laerm;67283;50.960;13.856;2023-09-12T00:18:59;33.75;29.54;59.15;;
78074;Laerm;67283;50.960;13.856;2023-09-12T00:21:24;52.08;29.53;70.01;;
78074;Laerm;67283;50.960;13.856;2023-09-12T00:23:49;31.63;29.56;56.58;;
78074;Laerm;67283;50.960;13.856;2023-09-12T00:26:15;30.56;29.23;42.77;;
78074;Laerm;67283;50.960;13.856;2023-09-12T00:28:40;52.81;29.41;71.60;;
78074;Laerm;67283;50.960;13.856;2023-09-12T00:31:05;51.91;29.74;68.84;;
78074;Laerm;67283;50.960;13.856;2023-09-12T00:33:31;30.22;29.56;40.81;;
78074;Laerm;67283;50.960;13.856;2023-09-12T00:35:56;30.33;29.56;45.13;;
78074;Laerm;67283;50.960;13.856;2023-09-12T00:38:22;32.49;29.43;56.71;;
78074;Laerm;67283;50.960;13.856;2023-09-12T00:40:47;53.58;29.67;72.16;;
78074;Laerm;67283;50.960;13.856;2023-09-12T00:43:12;47.57;29.40;63.12;;
78074;Laerm;67283;50.960;13.856;2023-09-12T00:45:38;30.14;29.47;34.60;;
78074;Laerm;67283;50.960;13.856;2023-09-12T00:48:04;30.45;29.32;44.04;;
78074;Laerm;67283;50.960;13.856;2023-09-12T00:50:30;47.76;29.56;61.43;;
78074;Laerm;67283;50.960;13.856;2023-09-12T00:52:56;30.07;29.37;33.60;;
78074;Laerm;67283;50.960;13.856;2023-09-12T00:55:21;30.12;29.37;35.34;;
78074;Laerm;67283;50.960;13.856;2023-09-12T00:57:47;30.38;29.43;43.66;;
78074;Laerm;67283;50.960;13.856;2023-09-12T01:00:13;30.72;29.46;45.90;;
78074;Laerm;67283;50.960;13.856;2023-09-12T01:02:39;30.35;29.44;37.72;;
78074;Laerm;67283;50.960;13.856;2023-09-12T01:05:05;30.18;29.38;45.08;;
78074;Laerm;67283;50.960;13.856;2023-09-12T01:07:31;30.13;29.46;38.67;;
78074;Laerm;67283;50.960;13.856;2023-09-12T01:09:57;30.09;29.28;31.63;;
78074;Laerm;67283;50.960;13.856;2023-09-12T01:12:22;30.25;29.33;40.60;;
78074;Laerm;67283;50.960;13.856;2023-09-12T01:14:48;29.97;29.34;31.70;;
78074;Laerm;67283;50.960;13.856;2023-09-12T01:17:13;30.33;29.28;47.18;;
78074;Laerm;67283;50.960;13.856;2023-09-12T01:19:39;32.09;29.48;58.30;;
78074;Laerm;67283;50.960;13.856;2023-09-12T01:29:49;30.26;29.39;45.03;;
78074;Laerm;67283;50.960;13.856;2023-09-12T01:32:16;30.04;29.35;36.57;;
78074;Laerm;67283;50.960;13.856;2023-09-12T01:34:43;52.48;29.46;69.48;;
78074;Laerm;67283;50.960;13.856;2023-09-12T01:37:08;42.32;29.64;56.93;;
78074;Laerm;67283;50.960;13.856;2023-09-12T01:39:34;30.19;29.38;44.00;;
78074;Laerm;67283;50.960;13.856;2023-09-12T01:41:59;32.87;29.29;60.26;;
78074;Laerm;67283;50.960;13.856;2023-09-12T01:44:26;30.10;29.47;36.12;;
78074;Laerm;67283;50.960;13.856;2023-09-12T01:46:52;30.13;29.35;35.25;;
78074;Laerm;67283;50.960;13.856;2023-09-12T01:49:19;30.25;29.30;34.76;;
78074;Laerm;67283;50.960;13.856;2023-09-12T01:51:46;52.84;29.58;71.16;;
78074;Laerm;67283;50.960;13.856;2023-09-12T01:54:12;30.11;29.32;32.50;;
78074;Laerm;67283;50.960;13.856;2023-09-12T01:56:37;31.06;29.51;48.92;;
78074;Laerm;67283;50.960;13.856;2023-09-12T01:59:03;36.80;29.68;61.45;;
78074;Laerm;67283;50.960;13.856;2023-09-12T02:01:29;54.71;29.25;71.69;;
78074;Laerm;67283;50.960;13.856;2023-09-12T02:03:54;30.30;29.42;45.17;;
78074;Laerm;67283;50.960;13.856;2023-09-12T02:06:20;30.24;29.29;38.89;;
78074;Laerm;67283;50.960;13.856;2023-09-12T02:08:45;52.28;29.62;69.60;;
78074;Laerm;67283;50.960;13.856;2023-09-12T02:11:11;30.44;29.57;36.79;;
78074;Laerm;67283;50.960;13.856;2023-09-12T02:13:36;52.51;29.68;69.12;;
78074;Laerm;67283;50.960;13.856;2023-09-12T02:16:01;30.29;29.52;37.44;;
78074;Laerm;67283;50.960;13.856;2023-09-12T02:18:28;51.48;29.65;68.62;;
78074;Laerm;67283;50.960;13.856;2023-09-12T02:20:54;57.06;29.65;75.54;;
78074;Laerm;67283;50.960;13.856;2023-09-12T02:23:19;30.45;29.41;36.50;;
78074;Laerm;67283;50.960;13.856;2023-09-12T02:25:44;30.20;29.47;32.77;;
78074;Laerm;67283;50.960;13.856;2023-09-12T02:28:10;52.61;29.45;68.83;;
78074;Laerm;67283;50.960;13.856;2023-09-12T02:30:37;50.66;30.00;68.72;;
78074;Laerm;67283;50.960;13.856;2023-09-12T02:33:03;47.21;29.50;67.60;;
78074;Laerm;67283;50.960;13.856;2023-09-12T02:35:28;30.25;29.49;32.49;;
78074;Laerm;67283;50.960;13.856;2023-09-12T02:37:54;53.47;29.96;66.53;;
78074;Laerm;67283;50.960;13.856;2023-09-12T02:40:19;55.67;29.68;69.70;;
78074;Laerm;67283;50.960;13.856;2023-09-12T02:42:44;59.35;30.62;71.89;;
78074;Laerm;67283;50.960;13.856;2023-09-12T02:45:10;54.70;29.72;69.36;;
78074;Laerm;67283;50.960;13.856;2023-09-12T02:47:35;55.95;29.59;70.28;;
78074;Laerm;67283;50.960;13.856;2023-09-12T02:50:01;38.89;29.31;59.32;;
78074;Laerm;67283;50.960;13.856;2023-09-12T02:52:26;51.55;29.43;68.55;;
78074;Laerm;67283;50.960;13.856;2023-09-12T02:54:51;51.29;30.00;68.01;;
78074;Laerm;67283;50.960;13.856;2023-09-12T02:57:17;34.31;29.82;57.35;;
78074;Laerm;67283;50.960;13.856;2023-09-12T02:59:42;45.59;29.91;64.07;;
78074;Laerm;67283;50.960;13.856;2023-09-12T03:02:07;53.11;29.87;68.12;;
78074;Laerm;67283;50.960;13.856;2023-09-12T03:04:34;55.85;30.27;68.56;;
78074;Laerm;67283;50.960;13.856;2023-09-12T03:07:00;54.83;29.92;69.46;;
78074;Laerm;67283;50.960;13.856;2023-09-12T03:09:25;60.55;30.47;75.88;;
78074;Laerm;67283;50.960;13.856;2023-09-12T03:11:51;58.73;30.43;73.63;;
78074;Laerm;67283;50.960;13.856;2023-09-12T03:14:16;55.30;29.89;69.43;;
78074;Laerm;67283;50.960;13.856;2023-09-12T03:16:42;61.25;30.32;75.83;;
78074;Laerm;67283;50.960;13.856;2023-09-12T03:19:07;59.38;30.95;71.32;;
78074;Laerm;67283;50.960;13.856;2023-09-12T03:21:32;62.59;34.12;77.18;;
78074;Laerm;67283;50.960;13.856;2023-09-12T03:23:58;59.46;31.09;70.92;;
78074;Laerm;67283;50.960;13.856;2023-09-12T03:26:23;58.96;30.20;71.11;;
78074;Laerm;67283;50.960;13.856;2023-09-12T03:28:49;58.23;32.13;69.59;;
78074;Laerm;67283;50.960;13.856;2023-09-12T03:31:15;64.61;31.84;81.07;;
78074;Laerm;67283;50.960;13.856;2023-09-12T03:33:41;56.05;30.43;71.17;;
78074;Laerm;67283;50.960;13.856;2023-09-12T03:36:07;58.14;30.71;71.38;;
78074;Laerm;67283;50.960;13.856;2023-09-12T03:38:33;56.11;30.24;70.15;;
78074;Laerm;67283;50.960;13.856;2023-09-12T03:40:58;58.68;30.19;71.97;;
78074;Laerm;67283;50.960;13.856;2023-09-12T03:43:24;56.23;30.86;70.89;;
78074;Laerm;67283;50.960;13.856;2023-09-12T03:45:49;57.97;30.39;70.38;;
78074;Laerm;67283;50.960;13.856;2023-09-12T03:48:14;61.48;31.02;77.51;;
78074;Laerm;67283;50.960;13.856;2023-09-12T03:50:40;57.94;30.94;72.46;;
78074;Laerm;67283;50.960;13.856;2023-09-12T03:53:05;52.48;30.49;68.05;;
78074;Laerm;67283;50.960;13.856;2023-09-12T03:55:31;62.56;32.31;76.80;;
78074;Laerm;67283;50.960;13.856;2023-09-12T03:57:56;59.82;35.98;70.10;;
78074;Laerm;67283;50.960;13.856;2023-09-12T04:00:22;59.80;37.14;70.55;;
78074;Laerm;67283;50.960;13.856;2023-09-12T04:02:47;57.05;30.88;68.71;;
78074;Laerm;67283;50.960;13.856;2023-09-12T04:05:13;60.83;31.70;76.16;;
78074;Laerm;67283;50.960;13.856;2023-09-12T04:07:39;61.83;42.54;74.52;;
78074;Laerm;67283;50.960;13.856;2023-09-12T04:10:04;60.25;31.98;70.81;;
78074;Laerm;67283;50.960;13.856;2023-09-12T04:12:30;60.27;41.86;73.04;;
78074;Laerm;67283;50.960;13.856;2023-09-12T04:14:55;57.33;30.70;71.85;;
78074;Laerm;67283;50.960;13.856;2023-09-12T04:17:20;59.86;33.12;71.84;;
78074;Laerm;67283;50.960;13.856;2023-09-12T04:19:46;61.56;41.65;73.36;;
78074;Laerm;67283;50.960;13.856;2023-09-12T04:22:11;62.36;33.81;75.16;;
78074;Laerm;67283;50.960;13.856;2023-09-12T04:24:36;62.23;46.65;70.39;;
78074;Laerm;67283;50.960;13.856;2023-09-12T04:27:02;63.10;37.16;71.70;;
78074;Laerm;67283;50.960;13.856;2023-09-12T04:29:28;60.64;33.44;71.96;;
78074;Laerm;67283;50.960;13.856;2023-09-12T04:31:53;62.29;47.25;72.49;;
78074;Laerm;67283;50.960;13.856;2023-09-12T04:34:24;65.90;36.99;82.37;;
78074;Laerm;67283;50.960;13.856;2023-09-12T04:36:50;64.37;44.29;77.77;;
78074;Laerm;67283;50.960;13.856;2023-09-12T04:39:15;65.95;32.54;84.81;;
78074;Laerm;67283;50.960;13.856;2023-09-12T04:41:40;60.95;37.54;70.77;;
78074;Laerm;67283;50.960;13.856;2023-09-12T04:44:06;56.10;34.18;69.50;;
78074;Laerm;67283;50.960;13.856;2023-09-12T04:46:31;62.81;40.50;73.74;;
78074;Laerm;67283;50.960;13.856;2023-09-12T04:48:56;60.25;41.76;74.03;;
78074;Laerm;67283;50.960;13.856;2023-09-12T04:51:22;62.11;32.40;71.33;;
78074;Laerm;67283;50.960;13.856;2023-09-12T04:53:47;60.30;32.71;70.36;;
78074;Laerm;67283;50.960;13.856;2023-09-12T04:56:16;61.05;44.88;73.76;;
78074;Laerm;67283;50.960;13.856;2023-09-12T04:58:42;62.32;33.54;77.80;;
78074;Laerm;67283;50.960;13.856;2023-09-12T05:01:07;58.93;32.21;71.18;;
78074;Laerm;67283;50.960;13.856;2023-09-12T05:03:33;64.23;33.60;78.35;;
78074;Laerm;67283;50.960;13.856;2023-09-12T05:05:58;60.57;32.09;76.19;;
78074;Laerm;67283;50.960;13.856;2023-09-12T05:08:24;62.71;32.14;75.22;;
78074;Laerm;67283;50.960;13.856;2023-09-12T05:10:49;56.48;31.69;68.73;;
78074;Laerm;67283;50.960;13.856;2023-09-12T05:13:15;59.27;31.03;73.48;;
78074;Laerm;67283;50.960;13.856;2023-09-12T05:15:40;58.33;31.21;71.74;;
78074;Laerm;67283;50.960;13.856;2023-09-12T05:18:06;60.77;31.73;73.56;;
78074;Laerm;67283;50.960;13.856;2023-09-12T05:20:32;64.08;41.97;75.99;;
78074;Laerm;67283;50.960;13.856;2023-09-12T05:22:58;60.50;33.00;71.66;;
78074;Laerm;67283;50.960;13.856;2023-09-12T05:25:23;63.11;47.06;74.75;;
78074;Laerm;67283;50.960;13.856;2023-09-12T05:27:48;61.82;32.70;72.04;;
78074;Laerm;67283;50.960;13.856;2023-09-12T05:30:14;59.90;32.32;72.86;;
78074;Laerm;67283;50.960;13.856;2023-09-12T05:32:40;64.42;34.70;79.00;;
78074;Laerm;67283;50.960;13.856;2023-09-12T05:35:06;62.12;40.51;73.25;;
78074;Laerm;67283;50.960;13.856;2023-09-12T05:37:31;60.09;32.63;72.05;;
78074;Laerm;67283;50.960;13.856;2023-09-12T05:39:57;63.14;36.99;77.06;;
78074;Laerm;67283;50.960;13.856;2023-09-12T05:42:22;66.15;33.24;81.76;;
78074;Laerm;67283;50.960;13.856;2023-09-12T05:44:48;63.99;42.00;81.56;;
78074;Laerm;67283;50.960;13.856;2023-09-12T05:47:15;58.44;31.16;71.65;;
78074;Laerm;67283;50.960;13.856;2023-09-12T05:49:40;58.86;31.61;73.57;;
78074;Laerm;67283;50.960;13.856;2023-09-12T05:52:05;56.25;32.43;70.38;;
78074;Laerm;67283;50.960;13.856;2023-09-12T05:54:31;60.07;33.89;70.97;;
78074;Laerm;67283;50.960;13.856;2023-09-12T05:56:56;59.05;30.60;73.56;;
78074;Laerm;67283;50.960;13.856;2023-09-12T05:59:22;51.46;30.72;65.55;;
78074;Laerm;67283;50.960;13.856;2023-09-12T06:01:47;57.78;32.08;73.95;;
78074;Laerm;67283;50.960;13.856;2023-09-12T06:04:13;61.91;36.54;73.72;;
78074;Laerm;67283;50.960;13.856;2023-09-12T06:06:39;57.21;32.99;74.03;;
78074;Laerm;67283;50.960;13.856;2023-09-12T06:09:04;63.83;35.37;80.58;;
78074;Laerm;67283;50.960;13.856;2023-09-12T06:11:30;58.56;32.60;69.34;;
78074;Laerm;67283;50.960;13.856;2023-09-12T06:13:56;51.95;30.60;67.37;;
78074;Laerm;67283;50.960;13.856;2023-09-12T06:16:21;53.51;30.95;68.21;;
78074;Laerm;67283;50.960;13.856;2023-09-12T06:18:47;63.55;33.74;79.83;;
78074;Laerm;67283;50.960;13.856;2023-09-12T06:21:13;59.78;31.09;74.86;;
78074;Laerm;67283;50.960;13.856;2023-09-12T06:23:39;53.56;30.41;70.82;;
78074;Laerm;67283;50.960;13.856;2023-09-12T06:26:04;62.59;32.63;78.05;;
78074;Laerm;67283;50.960;13.856;2023-09-12T06:28:30;54.59;30.24;69.67;;
78074;Laerm;67283;50.960;13.856;2023-09-12T06:30:56;61.55;32.37;72.10;;
78074;Laerm;67283;50.960;13.856;2023-09-12T06:33:22;54.49;31.69;70.10;;
78074;Laerm;67283;50.960;13.856;2023-09-12T06:35:50;55.66;31.98;69.12;;
78074;Laerm;67283;50.960;13.856;2023-09-12T06:38:17;60.24;30.65;75.13;;
78074;Laerm;67283;50.960;13.856;2023-09-12T06:40:43;64.49;32.12;82.25;;
78074;Laerm;67283;50.960;13.856;2023-09-12T06:43:08;61.90;36.21;76.70;;
78074;Laerm;67283;50.960;13.856;2023-09-12T06:45:34;61.01;32.41;71.03;;
78074;Laerm;67283;50.960;13.856;2023-09-12T06:48:01;59.55;31.22;70.73;;
78074;Laerm;67283;50.960;13.856;2023-09-12T06:50:27;59.00;30.71;71.42;;
78074;Laerm;67283;50.960;13.856;2023-09-12T06:52:52;53.29;31.70;66.23;;
78074;Laerm;67283;50.960;13.856;2023-09-12T06:55:18;56.57;34.19;72.98;;
78074;Laerm;67283;50.960;13.856;2023-09-12T06:57:43;63.00;35.38;79.82;;
78074;Laerm;67283;50.960;13.856;2023-09-12T07:00:08;60.05;33.35;72.84;;
78074;Laerm;67283;50.960;13.856;2023-09-12T07:02:35;57.97;32.22;70.06;;
78074;Laerm;67283;50.960;13.856;2023-09-12T07:05:00;62.41;34.68;78.07;;
78074;Laerm;67283;50.960;13.856;2023-09-12T07:07:26;62.05;33.14;73.96;;
78074;Laerm;67283;50.960;13.856;2023-09-12T07:09:51;58.52;31.15;69.88;;
78074;Laerm;67283;50.960;13.856;2023-09-12T07:12:16;53.94;31.07;67.39;;
78074;Laerm;67283;50.960;13.856;2023-09-12T07:14:42;60.13;36.31;72.05;;
78074;Laerm;67283;50.960;13.856;2023-09-12T07:17:07;57.71;30.52;69.03;;
78074;Laerm;67283;50.960;13.856;2023-09-12T07:19:32;56.81;30.84;72.04;;
78074;Laerm;67283;50.960;13.856;2023-09-12T07:21:58;58.00;30.42;72.04;;
78074;Laerm;67283;50.960;13.856;2023-09-12T07:24:26;59.87;34.59;74.58;;
78074;Laerm;67283;50.960;13.856;2023-09-12T07:26:52;60.91;32.12;77.53;;
78074;Laerm;67283;50.960;13.856;2023-09-12T07:29:17;62.22;33.90;77.24;;
78074;Laerm;67283;50.960;13.856;2023-09-12T07:31:43;60.46;53.78;70.05;;
78074;Laerm;67283;50.960;13.856;2023-09-12T07:34:08;56.26;53.78;64.88;;
78074;Laerm;67283;50.960;13.856;2023-09-12T07:36:34;64.80;54.11;79.63;;
78074;Laerm;67283;50.960;13.856;2023-09-12T07:39:00;59.62;53.95;70.61;;
78074;Laerm;67283;50.960;13.856;2023-09-12T07:41:25;61.82;54.29;74.76;;
78074;Laerm;67283;50.960;13.856;2023-09-12T07:43:51;60.56;54.17;74.22;;
78074;Laerm;67283;50.960;13.856;2023-09-12T07:46:16;60.18;54.15;73.45;;
78074;Laerm;67283;50.960;13.856;2023-09-12T07:48:41;65.07;54.52;77.85;;
78074;Laerm;67283;50.960;13.856;2023-09-12T07:51:14;61.47;54.64;74.74;;
78074;Laerm;67283;50.960;13.856;2023-09-12T07:53:40;56.58;54.40;65.38;;
78074;Laerm;67283;50.960;13.856;2023-09-12T07:56:05;61.20;54.59;69.96;;
78074;Laerm;67283;50.960;13.856;2023-09-12T07:58:31;59.17;54.37;68.97;;
78074;Laerm;67283;50.960;13.856;2023-09-12T08:00:56;62.15;54.43;77.07;;
78074;Laerm;67283;50.960;13.856;2023-09-12T08:03:22;58.76;54.17;69.57;;
78074;Laerm;67283;50.960;13.856;2023-09-12T08:05:56;58.00;54.31;67.26;;
78074;Laerm;67283;50.960;13.856;2023-09-12T08:08:22;61.59;54.19;72.26;;
78074;Laerm;67283;50.960;13.856;2023-09-12T08:10:48;60.56;54.44;73.14;;
78074;Laerm;67283;50.960;13.856;2023-09-12T08:13:14;59.89;54.25;78.66;;
78074;Laerm;67283;50.960;13.856;2023-09-12T08:15:39;58.11;54.03;69.39;;
78074;Laerm;67283;50.960;13.856;2023-09-12T08:18:04;59.54;54.02;70.02;;
78074;Laerm;67283;50.960;13.856;2023-09-12T08:20:30;58.34;54.11;68.25;;
78074;Laerm;67283;50.960;13.856;2023-09-12T08:22:55;60.68;54.15;71.78;;
78074;Laerm;67283;50.960;13.856;2023-09-12T08:25:20;60.46;54.19;71.60;;
78074;Laerm;67283;50.960;13.856;2023-09-12T08:27:46;78.29;54.04;99.55;;
78074;Laerm;67283;50.960;13.856;2023-09-12T08:30:12;59.62;54.07;73.10;;
78074;Laerm;67283;50.960;13.856;2023-09-12T08:32:38;60.91;54.33;77.29;;
78074;Laerm;67283;50.960;13.856;2023-09-12T08:35:05;52.67;31.41;67.12;;
78074;Laerm;67283;50.960;13.856;2023-09-12T08:37:31;61.08;37.74;75.64;;
78074;Laerm;67283;50.960;13.856;2023-09-12T08:39:56;60.10;53.96;76.57;;
78074;Laerm;67283;50.960;13.856;2023-09-12T08:42:24;63.07;54.18;80.70;;
78074;Laerm;67283;50.960;13.856;2023-09-12T08:44:52;60.56;53.90;75.35;;
78074;Laerm;67283;50.960;13.856;2023-09-12T08:47:17;61.14;54.34;72.65;;
78074;Laerm;67283;50.960;13.856;2023-09-12T08:49:44;57.78;53.99;68.95;;
78074;Laerm;67283;50.960;13.856;2023-09-12T08:52:10;61.23;53.66;74.04;;
78074;Laerm;67283;50.960;13.856;2023-09-12T08:54:35;57.75;53.78;69.31;;
78074;Laerm;67283;50.960;13.856;2023-09-12T08:57:03;58.37;53.97;69.89;;
78074;Laerm;67283;50.960;13.856;2023-09-12T08:59:33;60.22;53.26;73.47;;
78074;Laerm;67283;50.960;13.856;2023-09-12T09:01:59;60.94;54.03;80.89;;
78074;Laerm;67283;50.960;13.856;2023-09-12T09:04:26;61.02;54.12;72.54;;
78074;Laerm;67283;50.960;13.856;2023-09-12T09:06:53;58.51;53.94;69.54;;
78074;Laerm;67283;50.960;13.856;2023-09-12T09:09:20;66.56;54.69;85.08;;
78074;Laerm;67283;50.960;13.856;2023-09-12T09:11:46;59.20;54.23;70.83;;
78074;Laerm;67283;50.960;13.856;2023-09-12T09:14:11;62.63;53.98;77.33;;
78074;Laerm;67283;50.960;13.856;2023-09-12T09:16:37;59.30;54.21;68.59;;
78074;Laerm;67283;50.960;13.856;2023-09-12T09:19:03;59.37;53.99;71.84;;
78074;Laerm;67283;50.960;13.856;2023-09-12T09:21:31;58.91;53.57;69.58;;
78074;Laerm;67283;50.960;13.856;2023-09-12T09:24:00;61.34;54.37;72.73;;
78074;Laerm;67283;50.960;13.856;2023-09-12T09:26:40;61.83;54.21;79.35;;
78074;Laerm;67283;50.960;13.856;2023-09-12T09:29:08;62.26;54.24;72.74;;
78074;Laerm;67283;50.960;13.856;2023-09-12T09:31:34;58.97;54.08;67.82;;
78074;Laerm;67283;50.960;13.856;2023-09-12T09:33:59;60.68;54.16;70.80;;
78074;Laerm;67283;50.960;13.856;2023-09-12T09:36:26;60.20;53.80;72.83;;
78074;Laerm;67283;50.960;13.856;2023-09-12T09:38:51;59.89;32.83;70.75;;
78074;Laerm;67283;50.960;13.856;2023-09-12T09:41:20;54.16;33.68;68.40;;
78074;Laerm;67283;50.960;13.856;2023-09-12T09:43:49;55.58;32.63;67.82;;
78074;Laerm;67283;50.960;13.856;2023-09-12T09:46:17;60.46;53.48;70.77;;
78074;Laerm;67283;50.960;13.856;2023-09-12T09:48:49;60.17;53.65;75.58;;
78074;Laerm;67283;50.960;13.856;2023-09-12T09:51:15;60.66;53.68;72.18;;
78074;Laerm;67283;50.960;13.856;2023-09-12T09:53:40;59.90;53.54;73.92;;
78074;Laerm;67283;50.960;13.856;2023-09-12T09:56:11;63.13;53.87;77.82;;
78074;Laerm;67283;50.960;13.856;2023-09-12T09:58:41;60.25;53.74;68.88;;
78074;Laerm;67283;50.960;13.856;2023-09-12T10:01:07;66.34;53.60;82.93;;
78074;Laerm;67283;50.960;13.856;2023-09-12T10:03:34;59.17;53.77;73.62;;
78074;Laerm;67283;50.960;13.856;2023-09-12T10:06:01;60.59;53.86;72.02;;
78074;Laerm;67283;50.960;13.856;2023-09-12T10:08:28;63.62;53.66;78.31;;
78074;Laerm;67283;50.960;13.856;2023-09-12T10:10:54;62.43;53.72;74.48;;
78074;Laerm;67283;50.960;13.856;2023-09-12T10:13:19;59.77;53.28;75.72;;
78074;Laerm;67283;50.960;13.856;2023-09-12T10:15:46;62.04;53.48;76.93;;
78074;Laerm;67283;50.960;13.856;2023-09-12T10:18:14;61.20;53.69;71.75;;
78074;Laerm;67283;50.960;13.856;2023-09-12T10:20:54;59.71;53.72;72.87;;
78074;Laerm;67283;50.960;13.856;2023-09-12T10:23:23;62.80;39.90;80.09;;
78074;Laerm;67283;50.960;13.856;2023-09-12T10:25:51;58.31;49.93;69.71;;
78074;Laerm;67283;50.960;13.856;2023-09-12T10:28:16;59.43;49.96;71.96;;
78074;Laerm;67283;50.960;13.856;2023-09-12T10:30:42;58.26;50.08;68.65;;
78074;Laerm;67283;50.960;13.856;2023-09-12T10:33:08;60.25;50.55;71.94;;
78074;Laerm;67283;50.960;13.856;2023-09-12T10:35:34;56.40;50.21;69.18;;
78074;Laerm;67283;50.960;13.856;2023-09-12T10:38:00;62.44;50.18;76.01;;
78074;Laerm;67283;50.960;13.856;2023-09-12T10:40:29;59.83;48.89;72.56;;
78074;Laerm;67283;50.960;13.856;2023-09-12T10:42:55;57.42;39.35;72.37;;
78074;Laerm;67283;50.960;13.856;2023-09-12T10:45:20;59.57;30.89;80.06;;
78074;Laerm;67283;50.960;13.856;2023-09-12T10:47:46;60.52;38.43;75.80;;
78074;Laerm;67283;50.960;13.856;2023-09-12T10:50:11;59.71;30.94;73.06;;
78074;Laerm;67283;50.960;13.856;2023-09-12T10:52:37;61.23;36.71;74.74;;
78074;Laerm;67283;50.960;13.856;2023-09-12T10:55:05;61.57;33.72;75.58;;
78074;Laerm;67283;50.960;13.856;2023-09-12T10:57:30;58.50;32.83;74.17;;
78074;Laerm;67283;50.960;13.856;2023-09-12T11:02:31;57.28;31.28;69.18;;
78074;Laerm;67283;50.960;13.856;2023-09-12T11:04:57;60.44;36.21;74.71;;
78074;Laerm;67283;50.960;13.856;2023-09-12T11:12:37;57.12;35.12;69.63;;
78074;Laerm;67283;50.960;13.856;2023-09-12T11:15:03;63.90;39.47;78.23;;
78074;Laerm;67283;50.960;13.856;2023-09-12T11:17:30;57.63;30.72;68.57;;
78074;Laerm;67283;50.960;13.856;2023-09-12T11:20:02;56.94;30.46;72.05;;
78074;Laerm;67283;50.960;13.856;2023-09-12T11:22:35;58.14;31.05;70.31;;
78074;Laerm;67283;50.960;13.856;2023-09-12T11:25:01;62.77;37.05;80.22;;
78074;Laerm;67283;50.960;13.856;2023-09-12T11:28:01;59.05;32.47;72.20;;
78074;Laerm;67283;50.960;13.856;2023-09-12T11:30:20;61.62;34.83;74.25;;
78074;Laerm;67283;50.960;13.856;2023-09-12T11:32:46;61.70;32.69;76.41;;
78074;Laerm;67283;50.960;13.856;2023-09-12T11:35:13;57.10;31.31;71.09;;
78074;Laerm;67283;50.960;13.856;2023-09-12T11:37:38;59.88;30.66;75.37;;
78074;Laerm;67283;50.960;13.856;2023-09-12T11:42:39;61.84;31.53;80.49;;
78074;Laerm;67283;50.960;13.856;2023-09-12T11:45:07;61.77;29.66;76.15;;
78074;Laerm;67283;50.960;13.856;2023-09-12T11:47:33;58.33;32.30;72.64;;
78074;Laerm;67283;50.960;13.856;2023-09-12T11:49:59;57.16;30.36;71.20;;
78074;Laerm;67283;50.960;13.856;2023-09-12T11:52:24;60.67;32.57;77.11;;
78074;Laerm;67283;50.960;13.856;2023-09-12T11:54:49;60.40;31.67;71.14;;
78074;Laerm;67283;50.960;13.856;2023-09-12T11:57:15;58.38;31.29;71.09;;
78074;Laerm;67283;50.960;13.856;2023-09-12T11:59:41;56.98;31.57;69.09;;
78074;Laerm;67283;50.960;13.856;2023-09-12T12:02:09;60.36;32.56;71.42;;
78074;Laerm;67283;50.960;13.856;2023-09-12T12:04:35;61.43;32.64;72.10;;
78074;Laerm;67283;50.960;13.856;2023-09-12T12:07:01;59.22;30.27;71.26;;
78074;Laerm;67283;50.960;13.856;2023-09-12T12:09:26;61.11;31.48;74.03;;
78074;Laerm;67283;50.960;13.856;2023-09-12T12:11:52;64.92;32.73;83.63;;
78074;Laerm;67283;50.960;13.856;2023-09-12T12:14:17;60.67;34.91;77.21;;
78074;Laerm;67283;50.960;13.856;2023-09-12T12:16:44;60.19;32.38;72.67;;
78074;Laerm;67283;50.960;13.856;2023-09-12T12:19:10;66.52;32.02;83.48;;
78074;Laerm;67283;50.960;13.856;2023-09-12T12:21:39;62.45;32.84;78.88;;
78074;Laerm;67283;50.960;13.856;2023-09-12T12:24:05;58.74;34.81;68.21;;
78074;Laerm;67283;50.960;13.856;2023-09-12T12:26:32;59.62;33.45;71.77;;
78074;Laerm;67283;50.960;13.856;2023-09-12T12:28:59;60.96;31.53;74.80;;
78074;Laerm;67283;50.960;13.856;2023-09-12T12:31:25;59.51;32.90;73.77;;
78074;Laerm;67283;50.960;13.856;2023-09-12T12:33:54;60.11;31.78;72.46;;
78074;Laerm;67283;50.960;13.856;2023-09-12T12:36:20;57.34;30.93;70.49;;
78074;Laerm;67283;50.960;13.856;2023-09-12T12:38:46;55.54;31.00;67.76;;
78074;Laerm;67283;50.960;13.856;2023-09-12T12:41:28;65.16;30.69;81.68;;
78074;Laerm;67283;50.960;13.856;2023-09-12T12:43:56;62.11;34.28;76.89;;
78074;Laerm;67283;50.960;13.856;2023-09-12T12:46:24;55.25;30.39;68.81;;
78074;Laerm;67283;50.960;13.856;2023-09-12T12:48:50;59.79;34.14;70.73;;
78074;Laerm;67283;50.960;13.856;2023-09-12T12:53:45;61.34;33.51;77.01;;
78074;Laerm;67283;50.960;13.856;2023-09-12T12:56:12;64.92;34.29;82.86;;
78074;Laerm;67283;50.960;13.856;2023-09-12T12:58:38;56.95;29.89;68.94;;
78074;Laerm;67283;50.960;13.856;2023-09-12T13:01:04;56.02;29.85;68.53;;
78074;Laerm;67283;50.960;13.856;2023-09-12T13:03:31;58.76;32.42;75.18;;
78074;Laerm;67283;50.960;13.856;2023-09-12T13:05:56;63.19;35.54;72.01;;
78074;Laerm;67283;50.960;13.856;2023-09-12T13:08:22;61.79;35.02;72.87;;
78074;Laerm;67283;50.960;13.856;2023-09-12T13:10:47;60.24;32.99;71.00;;
78074;Laerm;67283;50.960;13.856;2023-09-12T13:13:13;57.76;31.60;74.73;;
78074;Laerm;67283;50.960;13.856;2023-09-12T13:15:38;57.70;30.10;68.52;;
78074;Laerm;67283;50.960;13.856;2023-09-12T13:18:04;60.40;43.60;69.53;;
78074;Laerm;67283;50.960;13.856;2023-09-12T13:20:29;60.40;36.85;70.27;;
78074;Laerm;67283;50.960;13.856;2023-09-12T13:22:55;58.43;29.90;70.68;;
78074;Laerm;67283;50.960;13.856;2023-09-12T13:25:20;65.21;32.71;83.46;;
78074;Laerm;67283;50.960;13.856;2023-09-12T13:27:48;63.72;35.04;77.05;;
78074;Laerm;67283;50.960;13.856;2023-09-12T13:30:14;61.11;35.93;72.29;;
78074;Laerm;67283;50.960;13.856;2023-09-12T13:32:39;64.71;44.64;81.43;;
78074;Laerm;67283;50.960;13.856;2023-09-12T13:35:04;62.95;36.98;74.16;;
78074;Laerm;67283;50.960;13.856;2023-09-12T13:37:30;55.51;33.49;68.99;;
78074;Laerm;67283;50.960;13.856;2023-09-12T13:39:55;61.57;43.44;73.63;;
78074;Laerm;67283;50.960;13.856;2023-09-12T13:42:21;62.44;34.38;78.71;;
78074;Laerm;67283;50.960;13.856;2023-09-12T13:44:47;59.97;40.64;69.77;;
78074;Laerm;67283;50.960;13.856;2023-09-12T13:47:12;61.32;41.30;70.48;;